Time,TemperatureF,DewpointF,PressureIn,WindDirection,WindDirectionDegrees,WindSpeedMPH,WindSpeedGustMPH,Humidity,HourlyPrecipIn,Conditions,Clouds,dailyrainin,SoftwareType,DateUTC
2013-02-21 00:00:00,22.3,14.9,30.15,North,0,3.4,3.4,73,0.00,,,0.00,WUHU216HW,2013-02-21 05:00:00,
2013-02-21 00:05:00,22.3,15.3,30.15,NNW,338,2.9,3.8,74,0.00,,,0.00,WUHU216HW,2013-02-21 05:05:00,
2013-02-21 00:10:00,22.3,15.3,30.16,NNW,338,5.6,5.6,74,0.00,,,0.00,WUHU216HW,2013-02-21 05:10:00,
2013-02-21 00:15:00,22.1,14.1,30.16,North,0,2.0,6.7,71,0.00,,,0.00,WUHU216HW,2013-02-21 05:15:00,
2013-02-21 00:20:00,22.1,14.1,30.16,NW,315,4.7,6.7,71,0.00,,,0.00,WUHU216HW,2013-02-21 05:20:00,
2013-02-21 00:25:00,22.0,14.0,30.16,West,270,2.9,4.7,71,0.00,,,0.00,WUHU216HW,2013-02-21 05:25:00,
2013-02-21 00:30:00,22.0,14.3,30.16,North,0,2.7,2.9,72,0.00,,,0.00,WUHU216HW,2013-02-21 05:30:00,
2013-02-21 00:35:00,22.0,14.3,30.16,NNW,338,1.6,5.1,72,0.00,,,0.00,WUHU216HW,2013-02-21 05:35:00,
2013-02-21 00:40:00,21.8,14.1,30.16,NNW,338,3.6,5.1,72,0.00,,,0.00,WUHU216HW,2013-02-21 05:40:00,
2013-02-21 00:45:00,21.6,14.0,30.16,North,0,2.5,3.6,72,0.00,,,0.00,WUHU216HW,2013-02-21 05:45:00,
2013-02-21 00:50:00,21.6,14.0,30.16,WNW,293,4.5,4.5,72,0.00,,,0.00,WUHU216HW,2013-02-21 05:50:00,
2013-02-21 00:55:00,21.6,14.0,30.16,NNW,338,0.9,4.5,72,0.00,,,0.00,WUHU216HW,2013-02-21 05:55:00,
2013-02-21 01:00:00,21.6,14.2,30.16,NNW,338,2.7,3.1,73,0.00,,,0.00,WUHU216HW,2013-02-21 06:00:00,
2013-02-21 01:05:00,21.4,14.4,30.17,North,0,1.8,3.1,74,0.00,,,0.00,WUHU216HW,2013-02-21 06:05:00,
2013-02-21 01:10:00,21.4,14.0,30.17,North,0,0.7,2.5,73,0.00,,,0.00,WUHU216HW,2013-02-21 06:10:00,
2013-02-21 01:15:00,21.6,14.2,30.17,WSW,248,0.7,3.4,73,0.00,,,0.00,WUHU216HW,2013-02-21 06:15:00,
2013-02-21 01:20:00,21.4,14.4,30.17,NNW,338,0.7,3.4,74,0.00,,,0.00,WUHU216HW,2013-02-21 06:20:00,
2013-02-21 01:25:00,21.6,14.6,30.17,NNW,338,0.4,2.9,74,0.00,,,0.00,WUHU216HW,2013-02-21 06:25:00,
2013-02-21 01:30:00,21.4,14.4,30.18,NNW,338,1.1,4.7,74,0.00,,,0.00,WUHU216HW,2013-02-21 06:30:00,
2013-02-21 01:35:00,21.2,14.2,30.18,North,0,1.8,4.7,74,0.00,,,0.00,WUHU216HW,2013-02-21 06:35:00,
2013-02-21 01:40:00,21.2,14.2,30.18,NNW,338,0.9,3.6,74,0.00,,,0.00,WUHU216HW,2013-02-21 06:40:00,
2013-02-21 01:45:00,21.2,14.5,30.17,North,0,0.9,4.0,75,0.00,,,0.00,WUHU216HW,2013-02-21 06:45:00,
2013-02-21 01:50:00,21.2,14.5,30.18,North,0,3.1,4.0,75,0.00,,,0.00,WUHU216HW,2013-02-21 06:50:00,
2013-02-21 01:55:00,21.2,14.5,30.18,NNW,338,2.5,3.1,75,0.00,,,0.00,WUHU216HW,2013-02-21 06:55:00,
2013-02-21 02:00:00,21.1,14.3,30.18,NW,315,0.4,2.5,75,0.00,,,0.00,WUHU216HW,2013-02-21 07:00:00,
2013-02-21 02:05:00,20.9,13.9,30.18,North,0,0.4,3.4,74,0.00,,,0.00,WUHU216HW,2013-02-21 07:05:00,
2013-02-21 02:10:00,20.9,13.9,30.18,North,0,0.9,3.4,74,0.00,,,0.00,WUHU216HW,2013-02-21 07:10:00,
2013-02-21 02:15:00,20.9,13.9,30.19,NW,315,0.9,2.9,74,0.00,,,0.00,WUHU216HW,2013-02-21 07:15:00,
2013-02-21 02:20:00,20.9,13.9,30.19,North,0,1.8,2.7,74,0.00,,,0.00,WUHU216HW,2013-02-21 07:20:00,
2013-02-21 02:25:00,20.7,13.3,30.19,NNW,338,0.7,2.7,73,0.00,,,0.00,WUHU216HW,2013-02-21 07:25:00,
2013-02-21 02:30:00,20.7,13.3,30.19,NNW,338,1.8,3.1,73,0.00,,,0.00,WUHU216HW,2013-02-21 07:30:00,
2013-02-21 02:35:00,20.7,13.7,30.19,NNW,338,2.5,3.1,74,0.00,,,0.00,WUHU216HW,2013-02-21 07:35:00,
2013-02-21 02:40:00,20.7,13.7,30.19,NNW,338,1.1,3.1,74,0.00,,,0.00,WUHU216HW,2013-02-21 07:40:00,
2013-02-21 02:45:00,20.7,13.7,30.20,NW,315,1.1,2.0,74,0.00,,,0.00,WUHU216HW,2013-02-21 07:45:00,
2013-02-21 02:50:00,20.7,13.7,30.20,West,270,1.8,2.0,74,0.00,,,0.00,WUHU216HW,2013-02-21 07:50:00,
2013-02-21 02:55:00,20.7,13.7,30.20,North,0,1.3,1.8,74,0.00,,,0.00,WUHU216HW,2013-02-21 07:55:00,
2013-02-21 03:00:00,20.9,13.9,30.19,NNW,338,0.9,1.3,74,0.00,,,0.00,WUHU216HW,2013-02-21 08:00:00,
2013-02-21 03:05:00,20.9,13.9,30.20,North,0,0.4,1.8,74,0.00,,,0.00,WUHU216HW,2013-02-21 08:05:00,
2013-02-21 03:10:00,20.7,13.3,30.20,NNW,338,2.2,2.2,73,0.00,,,0.00,WUHU216HW,2013-02-21 08:10:00,
2013-02-21 03:15:00,20.7,13.7,30.19,NNW,338,1.1,2.2,74,0.00,,,0.00,WUHU216HW,2013-02-21 08:15:00,
2013-02-21 03:20:00,20.9,13.9,30.19,NNE,23,1.1,1.1,74,0.00,,,0.00,WUHU216HW,2013-02-21 08:20:00,
2013-02-21 03:25:00,20.9,13.9,30.19,NW,315,2.0,3.8,74,0.00,,,0.00,WUHU216HW,2013-02-21 08:25:00,
2013-02-21 03:30:00,20.9,13.9,30.19,WSW,248,1.1,3.8,74,0.00,,,0.00,WUHU216HW,2013-02-21 08:30:00,
2013-02-21 03:35:00,20.9,13.9,30.19,NNW,338,0.2,4.0,74,0.00,,,0.00,WUHU216HW,2013-02-21 08:35:00,
2013-02-21 03:40:00,20.9,13.9,30.19,NW,315,1.8,4.0,74,0.00,,,0.00,WUHU216HW,2013-02-21 08:40:00,
2013-02-21 03:45:00,20.9,13.9,30.19,NNW,338,0.4,2.5,74,0.00,,,0.00,WUHU216HW,2013-02-21 08:45:00,
2013-02-21 03:50:00,20.9,13.9,30.19,North,0,0.4,2.5,74,0.00,,,0.00,WUHU216HW,2013-02-21 08:50:00,
2013-02-21 03:55:00,20.9,13.9,30.19,WNW,293,0.2,1.1,74,0.00,,,0.00,WUHU216HW,2013-02-21 08:55:00,
2013-02-21 04:00:00,20.9,13.9,30.19,NNW,338,0.0,1.1,74,0.00,,,0.00,WUHU216HW,2013-02-21 09:00:00,
2013-02-21 04:05:00,20.9,13.9,30.19,NNW,338,0.7,1.1,74,0.00,,,0.00,WUHU216HW,2013-02-21 09:05:00,
2013-02-21 04:10:00,21.1,14.1,30.19,North,0,1.8,3.4,74,0.00,,,0.00,WUHU216HW,2013-02-21 09:10:00,
2013-02-21 04:15:00,21.1,14.1,30.19,NNW,338,1.1,3.4,74,0.00,,,0.00,WUHU216HW,2013-02-21 09:15:00,
2013-02-21 04:20:00,21.1,14.1,30.19,North,0,1.3,1.8,74,0.00,,,0.00,WUHU216HW,2013-02-21 09:20:00,
2013-02-21 04:25:00,21.1,14.1,30.19,NNW,338,1.8,2.0,74,0.00,,,0.00,WUHU216HW,2013-02-21 09:25:00,
2013-02-21 04:30:00,21.1,14.1,30.19,North,0,0.0,2.0,74,0.00,,,0.00,WUHU216HW,2013-02-21 09:30:00,
2013-02-21 04:35:00,21.1,14.3,30.19,NNW,338,0.7,3.4,75,0.00,,,0.00,WUHU216HW,2013-02-21 09:35:00,
2013-02-21 04:40:00,21.1,14.3,30.19,North,0,0.0,3.4,75,0.00,,,0.00,WUHU216HW,2013-02-21 09:40:00,
2013-02-21 04:45:00,21.2,14.5,30.19,East,90,0.4,2.2,75,0.00,,,0.00,WUHU216HW,2013-02-21 09:45:00,
2013-02-21 04:50:00,21.2,14.5,30.19,North,0,0.0,1.8,75,0.00,,,0.00,WUHU216HW,2013-02-21 09:50:00,
2013-02-21 04:55:00,21.2,14.5,30.20,North,0,0.7,0.7,75,0.00,,,0.00,WUHU216HW,2013-02-21 09:55:00,
2013-02-21 05:00:00,21.2,14.5,30.20,NNE,23,0.0,1.8,75,0.00,,,0.00,WUHU216HW,2013-02-21 10:00:00,
2013-02-21 05:05:00,21.2,14.5,30.20,NNE,23,0.4,2.5,75,0.00,,,0.00,WUHU216HW,2013-02-21 10:05:00,
2013-02-21 05:10:00,21.2,14.2,30.20,NE,45,0.4,2.5,74,0.00,,,0.00,WUHU216HW,2013-02-21 10:10:00,
2013-02-21 05:15:00,21.2,14.5,30.20,North,0,0.4,1.3,75,0.00,,,0.00,WUHU216HW,2013-02-21 10:15:00,
2013-02-21 05:20:00,21.1,14.1,30.20,NNW,338,0.0,1.3,74,0.00,,,0.00,WUHU216HW,2013-02-21 10:20:00,
2013-02-21 05:25:00,21.1,14.1,30.21,NNW,338,1.1,1.1,74,0.00,,,0.00,WUHU216HW,2013-02-21 10:25:00,
2013-02-21 05:30:00,21.1,14.1,30.21,NNE,23,0.4,1.8,74,0.00,,,0.00,WUHU216HW,2013-02-21 10:30:00,
2013-02-21 05:35:00,21.2,14.2,30.21,North,0,0.4,1.8,74,0.00,,,0.00,WUHU216HW,2013-02-21 10:35:00,
2013-02-21 05:40:00,21.1,14.1,30.22,NNE,23,0.0,2.7,74,0.00,,,0.00,WUHU216HW,2013-02-21 10:40:00,
2013-02-21 05:45:00,21.2,14.2,30.22,NNE,23,1.1,2.7,74,0.00,,,0.00,WUHU216HW,2013-02-21 10:45:00,
2013-02-21 05:50:00,21.2,14.2,30.22,NNE,23,0.4,1.1,74,0.00,,,0.00,WUHU216HW,2013-02-21 10:50:00,
2013-02-21 05:55:00,21.2,14.2,30.22,NNE,23,0.9,1.6,74,0.00,,,0.00,WUHU216HW,2013-02-21 10:55:00,
2013-02-21 06:00:00,21.1,14.1,30.22,North,0,0.4,3.1,74,0.00,,,0.00,WUHU216HW,2013-02-21 11:00:00,
2013-02-21 06:05:00,21.1,14.3,30.22,North,0,0.0,3.1,75,0.00,,,0.00,WUHU216HW,2013-02-21 11:05:00,
2013-02-21 06:10:00,21.1,14.3,30.23,NE,45,1.6,1.6,75,0.00,,,0.00,WUHU216HW,2013-02-21 11:10:00,
2013-02-21 06:15:00,21.1,14.3,30.23,NNW,338,0.0,1.6,75,0.00,,,0.00,WUHU216HW,2013-02-21 11:15:00,
2013-02-21 06:20:00,21.1,14.3,30.23,North,0,0.0,0.9,75,0.00,,,0.00,WUHU216HW,2013-02-21 11:20:00,
2013-02-21 06:25:00,21.1,14.3,30.23,NE,45,0.4,0.9,75,0.00,,,0.00,WUHU216HW,2013-02-21 11:25:00,
2013-02-21 06:30:00,21.1,14.3,30.24,North,0,0.0,0.9,75,0.00,,,0.00,WUHU216HW,2013-02-21 11:30:00,
2013-02-21 06:35:00,20.9,14.1,30.24,North,0,0.0,0.9,75,0.00,,,0.00,WUHU216HW,2013-02-21 11:35:00,
2013-02-21 06:40:00,20.9,14.1,30.24,North,0,0.7,1.8,75,0.00,,,0.00,WUHU216HW,2013-02-21 11:40:00,
2013-02-21 06:45:00,20.9,14.1,30.23,North,0,0.2,1.8,75,0.00,,,0.00,WUHU216HW,2013-02-21 11:45:00,
2013-02-21 06:50:00,20.9,14.1,30.24,North,0,0.4,2.7,75,0.00,,,0.00,WUHU216HW,2013-02-21 11:50:00,
2013-02-21 06:55:00,20.9,14.1,30.24,NNE,23,2.2,2.7,75,0.00,,,0.00,WUHU216HW,2013-02-21 11:55:00,
2013-02-21 07:00:00,20.9,14.1,30.24,NE,45,1.8,2.5,75,0.00,,,0.00,WUHU216HW,2013-02-21 12:00:00,
2013-02-21 07:05:00,20.9,14.1,30.24,NNE,23,1.1,2.5,75,0.00,,,0.00,WUHU216HW,2013-02-21 12:05:00,
2013-02-21 07:10:00,20.9,14.1,30.24,North,0,0.0,1.1,75,0.00,,,0.00,WUHU216HW,2013-02-21 12:10:00,
2013-02-21 07:15:00,21.1,14.6,30.24,North,0,0.4,1.1,76,0.00,,,0.00,WUHU216HW,2013-02-21 12:15:00,
2013-02-21 07:20:00,20.9,14.1,30.24,NNE,23,1.8,2.7,75,0.00,,,0.00,WUHU216HW,2013-02-21 12:20:00,
2013-02-21 07:25:00,20.7,14.0,30.25,NNE,23,0.4,2.7,75,0.00,,,0.00,WUHU216HW,2013-02-21 12:25:00,
2013-02-21 07:30:00,20.7,14.2,30.26,NNE,23,0.2,1.3,76,0.00,,,0.00,WUHU216HW,2013-02-21 12:30:00,
2013-02-21 07:35:00,20.7,14.2,30.26,NNE,23,0.0,0.4,76,0.00,,,0.00,WUHU216HW,2013-02-21 12:35:00,
2013-02-21 07:40:00,20.5,14.0,30.27,NNW,338,1.8,1.8,76,0.00,,,0.00,WUHU216HW,2013-02-21 12:40:00,
2013-02-21 07:45:00,20.7,14.2,30.28,NNE,23,1.6,1.8,76,0.00,,,0.00,WUHU216HW,2013-02-21 12:45:00,
2013-02-21 07:50:00,20.7,14.2,30.28,NNW,338,1.8,2.5,76,0.00,,,0.00,WUHU216HW,2013-02-21 12:50:00,
2013-02-21 07:55:00,20.7,14.2,30.29,North,0,0.0,2.5,76,0.00,,,0.00,WUHU216HW,2013-02-21 12:55:00,
2013-02-21 08:00:00,20.7,14.2,30.29,North,0,0.9,2.0,76,0.00,,,0.00,WUHU216HW,2013-02-21 13:00:00,
2013-02-21 08:05:00,20.7,14.0,30.29,NNE,23,0.0,2.9,75,0.00,,,0.00,WUHU216HW,2013-02-21 13:05:00,
2013-02-21 08:10:00,20.7,14.0,30.29,NNE,23,2.0,2.9,75,0.00,,,0.00,WUHU216HW,2013-02-21 13:10:00,
2013-02-21 08:15:00,20.5,13.8,30.29,NE,45,2.2,2.2,75,0.00,,,0.00,WUHU216HW,2013-02-21 13:15:00,
2013-02-21 08:20:00,20.7,14.0,30.29,NE,45,2.5,2.9,75,0.00,,,0.00,WUHU216HW,2013-02-21 13:20:00,
2013-02-21 08:25:00,20.5,13.8,30.29,NNE,23,2.9,2.9,75,0.00,,,0.00,WUHU216HW,2013-02-21 13:25:00,
2013-02-21 08:30:00,20.7,14.0,30.29,NNE,23,0.4,2.9,75,0.00,,,0.00,WUHU216HW,2013-02-21 13:30:00,
2013-02-21 08:35:00,20.9,14.1,30.29,NNW,338,0.9,1.6,75,0.00,,,0.00,WUHU216HW,2013-02-21 13:35:00,
2013-02-21 08:40:00,20.9,14.1,30.29,North,0,0.4,2.5,75,0.00,,,0.00,WUHU216HW,2013-02-21 13:40:00,
2013-02-21 08:45:00,20.9,13.9,30.29,North,0,2.0,2.5,74,0.00,,,0.00,WUHU216HW,2013-02-21 13:45:00,
2013-02-21 08:50:00,20.9,13.9,30.28,North,0,0.2,2.5,74,0.00,,,0.00,WUHU216HW,2013-02-21 13:50:00,
2013-02-21 08:55:00,20.9,13.9,30.28,North,0,1.3,2.0,74,0.00,,,0.00,WUHU216HW,2013-02-21 13:55:00,
2013-02-21 09:00:00,20.9,13.9,30.28,NE,45,4.3,4.7,74,0.00,,,0.00,WUHU216HW,2013-02-21 14:00:00,
2013-02-21 09:05:00,20.7,13.7,30.28,NE,45,4.0,4.7,74,0.00,,,0.00,WUHU216HW,2013-02-21 14:05:00,
2013-02-21 09:10:00,20.7,14.0,30.28,North,0,2.5,4.0,75,0.00,,,0.00,WUHU216HW,2013-02-21 14:10:00,
2013-02-21 09:15:00,20.7,13.7,30.28,NNW,338,2.7,3.4,74,0.00,,,0.00,WUHU216HW,2013-02-21 14:15:00,
2013-02-21 09:20:00,21.1,14.1,30.28,ENE,68,4.0,4.0,74,0.00,,,0.00,WUHU216HW,2013-02-21 14:20:00,
2013-02-21 09:25:00,21.1,14.1,30.28,East,90,2.5,4.7,74,0.00,,,0.00,WUHU216HW,2013-02-21 14:25:00,
2013-02-21 09:30:00,21.1,14.1,30.28,NE,45,2.5,4.7,74,0.00,,,0.00,WUHU216HW,2013-02-21 14:30:00,
2013-02-21 09:35:00,21.1,13.7,30.28,NNE,23,1.6,3.6,73,0.00,,,0.00,WUHU216HW,2013-02-21 14:35:00,
2013-02-21 09:40:00,20.9,13.5,30.28,North,0,1.6,3.6,73,0.00,,,0.00,WUHU216HW,2013-02-21 14:40:00,
2013-02-21 09:45:00,21.2,13.9,30.29,NNW,338,2.5,4.5,73,0.00,,,0.00,WUHU216HW,2013-02-21 14:45:00,
2013-02-21 09:50:00,20.9,13.5,30.29,NNE,23,1.3,4.5,73,0.00,,,0.00,WUHU216HW,2013-02-21 14:50:00,
2013-02-21 09:55:00,20.9,13.2,30.29,North,0,3.6,4.7,72,0.00,,,0.00,WUHU216HW,2013-02-21 14:55:00,
2013-02-21 10:00:00,21.1,13.1,30.29,North,0,2.5,4.7,71,0.00,,,0.00,WUHU216HW,2013-02-21 15:00:00,
2013-02-21 10:05:00,21.1,13.4,30.29,North,0,0.9,2.5,72,0.00,,,0.00,WUHU216HW,2013-02-21 15:05:00,
2013-02-21 10:10:00,21.2,13.2,30.29,NE,45,1.8,2.5,71,0.00,,,0.00,WUHU216HW,2013-02-21 15:10:00,
2013-02-21 10:15:00,21.4,13.8,30.29,North,0,0.2,1.8,72,0.00,,,0.00,WUHU216HW,2013-02-21 15:15:00,
2013-02-21 10:20:00,21.8,14.1,30.29,North,0,1.6,1.8,72,0.00,,,0.00,WUHU216HW,2013-02-21 15:20:00,
2013-02-21 10:25:00,22.0,14.3,30.29,NE,45,2.2,2.2,72,0.00,,,0.00,WUHU216HW,2013-02-21 15:25:00,
2013-02-21 10:30:00,21.8,13.8,30.30,NNW,338,1.8,3.1,71,0.00,,,0.00,WUHU216HW,2013-02-21 15:30:00,
2013-02-21 10:35:00,21.6,13.3,30.30,North,0,2.0,3.4,70,0.00,,,0.00,WUHU216HW,2013-02-21 15:35:00,
2013-02-21 10:40:00,21.6,13.3,30.31,NNE,23,1.3,3.4,70,0.00,,,0.00,WUHU216HW,2013-02-21 15:40:00,
2013-02-21 10:45:00,21.8,13.5,30.31,North,0,3.4,4.0,70,0.00,,,0.00,WUHU216HW,2013-02-21 15:45:00,
2013-02-21 10:50:00,22.0,13.7,30.31,NNW,338,2.2,4.0,70,0.00,,,0.00,WUHU216HW,2013-02-21 15:50:00,
2013-02-21 10:55:00,22.0,13.7,30.31,NNW,338,2.0,2.5,70,0.00,,,0.00,WUHU216HW,2013-02-21 15:55:00,
2013-02-21 11:00:00,22.1,13.5,30.30,North,0,2.2,2.5,69,0.00,,,0.00,WUHU216HW,2013-02-21 16:00:00,
2013-02-21 11:05:00,22.1,13.9,30.32,NE,45,2.5,2.5,70,0.00,,,0.00,WUHU216HW,2013-02-21 16:05:00,
2013-02-21 11:10:00,22.0,13.3,30.32,SSW,203,0.0,3.4,69,0.00,,,0.00,WUHU216HW,2013-02-21 16:10:00,
2013-02-21 11:15:00,22.5,14.2,30.32,NW,315,1.8,3.4,70,0.00,,,0.00,WUHU216HW,2013-02-21 16:15:00,
2013-02-21 11:20:00,22.9,13.9,30.31,WNW,293,0.9,2.0,68,0.00,,,0.00,WUHU216HW,2013-02-21 16:20:00,
2013-02-21 11:25:00,23.0,14.4,30.31,NW,315,0.0,1.1,69,0.00,,,0.00,WUHU216HW,2013-02-21 16:25:00,
2013-02-21 11:30:00,23.2,14.6,30.31,NNE,23,0.7,3.4,69,0.00,,,0.00,WUHU216HW,2013-02-21 16:30:00,
2013-02-21 11:35:00,22.9,14.2,30.31,NE,45,2.9,3.4,69,0.00,,,0.00,WUHU216HW,2013-02-21 16:35:00,
2013-02-21 11:40:00,22.9,13.9,30.29,NNE,23,1.8,3.4,68,0.00,,,0.00,WUHU216HW,2013-02-21 16:40:00,
2013-02-21 11:45:00,23.2,14.6,30.29,SSE,158,0.4,3.4,69,0.00,,,0.00,WUHU216HW,2013-02-21 16:45:00,
2013-02-21 11:50:00,23.8,15.0,30.30,ENE,68,0.2,2.7,69,0.00,,,0.00,WUHU216HW,2013-02-21 16:50:00,
2013-02-21 11:55:00,24.1,15.4,30.29,NE,45,2.0,2.7,69,0.00,,,0.00,WUHU216HW,2013-02-21 16:55:00,
2013-02-21 12:00:00,23.8,15.0,30.29,North,0,1.6,3.6,69,0.00,,,0.00,WUHU216HW,2013-02-21 17:00:00,
2013-02-21 12:05:00,23.8,14.7,30.29,North,0,0.0,3.6,68,0.00,,,0.00,WUHU216HW,2013-02-21 17:05:00,
2013-02-21 12:10:00,24.1,15.0,30.29,NNE,23,0.7,3.4,68,0.00,,,0.00,WUHU216HW,2013-02-21 17:10:00,
2013-02-21 12:15:00,23.8,14.7,30.29,North,0,0.9,3.4,68,0.00,,,0.00,WUHU216HW,2013-02-21 17:15:00,
2013-02-21 12:20:00,23.8,15.0,30.29,ENE,68,2.0,2.0,69,0.00,,,0.00,WUHU216HW,2013-02-21 17:20:00,
2013-02-21 12:25:00,23.4,14.4,30.29,ENE,68,3.1,3.1,68,0.00,,,0.00,WUHU216HW,2013-02-21 17:25:00,
2013-02-21 12:30:00,23.6,14.9,30.29,East,90,2.7,3.4,69,0.00,,,0.00,WUHU216HW,2013-02-21 17:30:00,
2013-02-21 12:35:00,24.1,15.0,30.30,South,180,2.5,3.4,68,0.00,,,0.00,WUHU216HW,2013-02-21 17:35:00,
2013-02-21 12:40:00,24.7,15.8,30.29,NE,45,3.8,3.8,69,0.00,,,0.00,WUHU216HW,2013-02-21 17:40:00,
2013-02-21 12:45:00,24.3,14.9,30.29,NE,45,2.5,4.3,67,0.00,,,0.00,WUHU216HW,2013-02-21 17:45:00,
2013-02-21 12:50:00,24.1,15.0,30.29,NE,45,1.8,4.3,68,0.00,,,0.00,WUHU216HW,2013-02-21 17:50:00,
2013-02-21 12:55:00,24.5,15.0,30.29,NE,45,4.0,4.0,67,0.00,,,0.00,WUHU216HW,2013-02-21 17:55:00,
2013-02-21 13:00:00,24.3,14.9,30.28,East,90,3.8,4.0,67,0.00,,,0.00,WUHU216HW,2013-02-21 18:00:00,
2013-02-21 13:05:00,24.3,14.9,30.28,North,0,1.3,3.8,67,0.00,,,0.00,WUHU216HW,2013-02-21 18:05:00,
2013-02-21 13:10:00,24.3,14.5,30.28,NW,315,0.4,2.9,66,0.00,,,0.00,WUHU216HW,2013-02-21 18:10:00,
2013-02-21 13:15:00,24.1,14.3,30.28,NNW,338,0.2,3.1,66,0.00,,,0.00,WUHU216HW,2013-02-21 18:15:00,
2013-02-21 13:20:00,24.1,14.3,30.28,NNE,23,0.4,5.1,66,0.00,,,0.00,WUHU216HW,2013-02-21 18:20:00,
2013-02-21 13:25:00,24.1,15.0,30.29,SE,135,1.8,5.1,68,0.00,,,0.00,WUHU216HW,2013-02-21 18:25:00,
2013-02-21 13:30:00,24.7,15.2,30.29,ENE,68,1.1,4.0,67,0.00,,,0.00,WUHU216HW,2013-02-21 18:30:00,
2013-02-21 13:35:00,24.8,15.7,30.29,NE,45,1.8,4.0,68,0.00,,,0.00,WUHU216HW,2013-02-21 18:35:00,
2013-02-21 13:40:00,25.0,15.6,30.30,NNW,338,0.9,2.0,67,0.00,,,0.00,WUHU216HW,2013-02-21 18:40:00,
2013-02-21 13:45:00,25.2,15.4,30.30,NNE,23,1.8,3.4,66,0.00,,,0.00,WUHU216HW,2013-02-21 18:45:00,
2013-02-21 13:50:00,25.6,16.0,30.31,NNE,23,1.3,3.4,67,0.00,,,0.00,WUHU216HW,2013-02-21 18:50:00,
2013-02-21 13:55:00,25.6,15.7,30.30,NNW,338,0.4,2.0,66,0.00,,,0.00,WUHU216HW,2013-02-21 18:55:00,
2013-02-21 14:00:00,25.7,16.2,30.30,East,90,1.8,1.8,67,0.00,,,0.00,WUHU216HW,2013-02-21 19:00:00,
2013-02-21 14:05:00,25.9,16.4,30.30,East,90,1.8,2.5,67,0.00,,,0.00,WUHU216HW,2013-02-21 19:05:00,
2013-02-21 14:10:00,25.7,15.8,30.29,NNE,23,0.9,4.7,66,0.00,,,0.00,WUHU216HW,2013-02-21 19:10:00,
2013-02-21 14:15:00,25.7,15.8,30.29,East,90,0.9,4.7,66,0.00,,,0.00,WUHU216HW,2013-02-21 19:15:00,
2013-02-21 14:20:00,25.7,15.6,30.29,East,90,1.6,3.4,65,0.00,,,0.00,WUHU216HW,2013-02-21 19:20:00,
2013-02-21 14:25:00,25.7,15.8,30.29,North,0,1.1,3.4,66,0.00,,,0.00,WUHU216HW,2013-02-21 19:25:00,
2013-02-21 14:30:00,26.3,16.4,30.28,North,0,1.8,2.5,66,0.00,,,0.00,WUHU216HW,2013-02-21 19:30:00,
2013-02-21 14:35:00,26.3,16.0,30.27,NE,45,1.8,1.8,65,0.00,,,0.00,WUHU216HW,2013-02-21 19:35:00,
2013-02-21 14:40:00,25.9,15.3,30.27,NE,45,3.4,3.4,64,0.00,,,0.00,WUHU216HW,2013-02-21 19:40:00,
2013-02-21 14:45:00,25.9,15.3,30.28,NE,45,0.7,4.7,64,0.00,,,0.00,WUHU216HW,2013-02-21 19:45:00,
2013-02-21 14:50:00,26.1,15.8,30.28,ENE,68,2.7,4.7,65,0.00,,,0.00,WUHU216HW,2013-02-21 19:50:00,
2013-02-21 14:55:00,25.9,15.3,30.27,ENE,68,1.1,4.0,64,0.00,,,0.00,WUHU216HW,2013-02-21 19:55:00,
2013-02-21 15:00:00,25.6,15.4,30.27,NE,45,3.4,4.0,65,0.00,,,0.00,WUHU216HW,2013-02-21 20:00:00,
2013-02-21 15:05:00,25.7,15.6,30.27,NNE,23,0.4,3.8,65,0.00,,,0.00,WUHU216HW,2013-02-21 20:05:00,
2013-02-21 15:10:00,25.7,15.6,30.27,NE,45,0.4,3.8,65,0.00,,,0.00,WUHU216HW,2013-02-21 20:10:00,
2013-02-21 15:15:00,25.9,15.3,30.27,NNE,23,4.7,4.7,64,0.00,,,0.00,WUHU216HW,2013-02-21 20:15:00,
2013-02-21 15:20:00,25.9,15.0,30.27,NNE,23,2.9,4.7,63,0.00,,,0.00,WUHU216HW,2013-02-21 20:20:00,
2013-02-21 15:25:00,25.7,15.2,30.26,ENE,68,2.2,4.5,64,0.00,,,0.00,WUHU216HW,2013-02-21 20:25:00,
2013-02-21 15:30:00,25.6,14.7,30.26,North,0,3.8,5.1,63,0.00,,,0.00,WUHU216HW,2013-02-21 20:30:00,
2013-02-21 15:35:00,25.6,14.7,30.25,NNE,23,1.1,5.1,63,0.00,,,0.00,WUHU216HW,2013-02-21 20:35:00,
2013-02-21 15:40:00,25.7,15.2,30.25,ESE,113,2.9,4.3,64,0.00,,,0.00,WUHU216HW,2013-02-21 20:40:00,
2013-02-21 15:45:00,25.9,15.3,30.24,ENE,68,3.4,4.3,64,0.00,,,0.00,WUHU216HW,2013-02-21 20:45:00,
2013-02-21 15:50:00,25.9,15.3,30.24,NE,45,3.1,3.8,64,0.00,,,0.00,WUHU216HW,2013-02-21 20:50:00,
2013-02-21 15:55:00,25.9,15.3,30.24,East,90,5.4,5.4,64,0.00,,,0.00,WUHU216HW,2013-02-21 20:55:00,
2013-02-21 16:00:00,26.1,15.5,30.24,East,90,1.8,5.4,64,0.00,,,0.00,WUHU216HW,2013-02-21 21:00:00,
2013-02-21 16:05:00,25.9,15.3,30.23,East,90,1.8,4.3,64,0.00,,,0.00,WUHU216HW,2013-02-21 21:05:00,
2013-02-21 16:10:00,25.7,15.2,30.24,NE,45,2.2,4.0,64,0.00,,,0.00,WUHU216HW,2013-02-21 21:10:00,
2013-02-21 16:15:00,25.6,14.7,30.23,NNE,23,3.4,5.1,63,0.00,,,0.00,WUHU216HW,2013-02-21 21:15:00,
2013-02-21 16:20:00,25.6,15.4,30.23,East,90,2.5,5.1,65,0.00,,,0.00,WUHU216HW,2013-02-21 21:20:00,
2013-02-21 16:25:00,25.6,15.4,30.24,East,90,2.7,4.0,65,0.00,,,0.00,WUHU216HW,2013-02-21 21:25:00,
2013-02-21 16:30:00,25.4,15.2,30.24,East,90,3.6,4.0,65,0.00,,,0.00,WUHU216HW,2013-02-21 21:30:00,
2013-02-21 16:35:00,25.2,15.0,30.25,NE,45,2.7,6.3,65,0.00,,,0.00,WUHU216HW,2013-02-21 21:35:00,
2013-02-21 16:40:00,25.2,15.0,30.26,NNE,23,3.1,6.3,65,0.00,,,0.00,WUHU216HW,2013-02-21 21:40:00,
2013-02-21 16:45:00,25.0,15.2,30.27,NE,45,2.5,4.9,66,0.00,,,0.00,WUHU216HW,2013-02-21 21:45:00,
2013-02-21 16:50:00,24.8,15.0,30.27,East,90,2.7,4.9,66,0.00,,,0.00,WUHU216HW,2013-02-21 21:50:00,
2013-02-21 16:55:00,24.8,15.0,30.28,ENE,68,1.6,2.7,66,0.00,,,0.00,WUHU216HW,2013-02-21 21:55:00,
2013-02-21 17:00:00,24.8,15.0,30.29,ENE,68,1.1,2.5,66,0.00,,,0.00,WUHU216HW,2013-02-21 22:00:00,
2013-02-21 17:05:00,24.8,15.0,30.29,NE,45,1.8,2.2,66,0.00,,,0.00,WUHU216HW,2013-02-21 22:05:00,
2013-02-21 17:10:00,24.8,15.4,30.29,ESE,113,1.3,2.2,67,0.00,,,0.00,WUHU216HW,2013-02-21 22:10:00,
2013-02-21 17:15:00,24.8,15.4,30.30,ENE,68,1.3,1.8,67,0.00,,,0.00,WUHU216HW,2013-02-21 22:15:00,
2013-02-21 17:20:00,24.8,15.4,30.30,NE,45,3.1,3.1,67,0.00,,,0.00,WUHU216HW,2013-02-21 22:20:00,
2013-02-21 17:25:00,24.7,15.2,30.30,NNE,23,3.1,3.1,67,0.00,,,0.00,WUHU216HW,2013-02-21 22:25:00,
2013-02-21 17:30:00,24.5,15.4,30.31,NE,45,0.7,3.1,68,0.00,,,0.00,WUHU216HW,2013-02-21 22:30:00,
2013-02-21 17:35:00,24.3,15.2,30.31,NNE,23,1.8,2.5,68,0.00,,,0.00,WUHU216HW,2013-02-21 22:35:00,
2013-02-21 17:40:00,24.1,15.0,30.31,ENE,68,0.9,2.5,68,0.00,,,0.00,WUHU216HW,2013-02-21 22:40:00,
2013-02-21 17:45:00,24.1,15.0,30.30,ENE,68,1.8,2.5,68,0.00,,,0.00,WUHU216HW,2013-02-21 22:45:00,
2013-02-21 17:50:00,24.1,15.4,30.31,NE,45,1.3,1.8,69,0.00,,,0.00,WUHU216HW,2013-02-21 22:50:00,
2013-02-21 17:55:00,23.9,15.2,30.31,NE,45,1.1,1.8,69,0.00,,,0.00,WUHU216HW,2013-02-21 22:55:00,
2013-02-21 18:00:00,23.8,14.7,30.30,NE,45,1.1,1.8,68,0.00,,,0.00,WUHU216HW,2013-02-21 23:00:00,
2013-02-21 18:05:00,23.6,14.6,30.30,ENE,68,1.1,2.5,68,0.00,,,0.00,WUHU216HW,2013-02-21 23:05:00,
2013-02-21 18:10:00,23.4,14.8,30.30,NE,45,2.5,2.5,69,0.00,,,0.00,WUHU216HW,2013-02-21 23:10:00,
2013-02-21 18:15:00,23.4,14.8,30.30,NE,45,1.6,2.7,69,0.00,,,0.00,WUHU216HW,2013-02-21 23:15:00,
2013-02-21 18:20:00,23.4,14.8,30.29,ENE,68,2.0,3.1,69,0.00,,,0.00,WUHU216HW,2013-02-21 23:20:00,
2013-02-21 18:25:00,23.2,14.6,30.29,ENE,68,2.7,3.8,69,0.00,,,0.00,WUHU216HW,2013-02-21 23:25:00,
2013-02-21 18:30:00,23.0,14.4,30.29,NE,45,1.8,3.8,69,0.00,,,0.00,WUHU216HW,2013-02-21 23:30:00,
2013-02-21 18:35:00,23.0,14.8,30.29,ENE,68,2.5,4.3,70,0.00,,,0.00,WUHU216HW,2013-02-21 23:35:00,
2013-02-21 18:40:00,22.9,14.6,30.29,NE,45,2.2,4.3,70,0.00,,,0.00,WUHU216HW,2013-02-21 23:40:00,
2013-02-21 18:45:00,22.9,14.6,30.29,NE,45,3.1,3.4,70,0.00,,,0.00,WUHU216HW,2013-02-21 23:45:00,
2013-02-21 18:50:00,22.9,14.6,30.29,NE,45,1.8,3.1,70,0.00,,,0.00,WUHU216HW,2013-02-21 23:50:00,
2013-02-21 18:55:00,22.7,14.7,30.29,NE,45,1.8,3.1,71,0.00,,,0.00,WUHU216HW,2013-02-21 23:55:00,
2013-02-21 19:00:00,22.7,14.7,30.28,NNE,23,1.3,3.1,71,0.00,,,0.00,WUHU216HW,2013-02-22 00:00:00,
2013-02-21 19:05:00,22.7,14.7,30.29,NE,45,1.1,3.1,71,0.00,,,0.00,WUHU216HW,2013-02-22 00:05:00,
2013-02-21 19:10:00,22.7,15.0,30.29,NNE,23,2.0,3.6,72,0.00,,,0.00,WUHU216HW,2013-02-22 00:10:00,
2013-02-21 19:15:00,22.7,15.0,30.29,NE,45,1.1,3.6,72,0.00,,,0.00,WUHU216HW,2013-02-22 00:15:00,
2013-02-21 19:20:00,22.7,15.0,30.29,ENE,68,2.0,4.7,72,0.00,,,0.00,WUHU216HW,2013-02-22 00:20:00,
2013-02-21 19:25:00,22.7,15.0,30.29,NNE,23,1.3,4.7,72,0.00,,,0.00,WUHU216HW,2013-02-22 00:25:00,
2013-02-21 19:30:00,22.7,15.0,30.29,NE,45,1.3,4.3,72,0.00,,,0.00,WUHU216HW,2013-02-22 00:30:00,
2013-02-21 19:35:00,22.5,14.9,30.28,East,90,0.0,2.9,72,0.00,,,0.00,WUHU216HW,2013-02-22 00:35:00,
2013-02-21 19:40:00,22.5,14.9,30.28,NNE,23,1.8,2.5,72,0.00,,,0.00,WUHU216HW,2013-02-22 00:40:00,
2013-02-21 19:45:00,22.7,15.0,30.28,ENE,68,1.6,2.5,72,0.00,,,0.00,WUHU216HW,2013-02-22 00:45:00,
2013-02-21 19:50:00,22.5,14.9,30.28,NE,45,1.3,2.2,72,0.00,,,0.00,WUHU216HW,2013-02-22 00:50:00,
2013-02-21 19:55:00,22.7,15.0,30.28,NE,45,0.4,1.3,72,0.00,,,0.00,WUHU216HW,2013-02-22 00:55:00,
2013-02-21 20:00:00,22.7,15.3,30.28,ENE,68,1.1,3.4,73,0.00,,,0.00,WUHU216HW,2013-02-22 01:00:00,
2013-02-21 20:05:00,22.7,15.3,30.27,NE,45,3.4,3.4,73,0.00,,,0.00,WUHU216HW,2013-02-22 01:05:00,
2013-02-21 20:10:00,22.5,15.1,30.28,NNE,23,2.5,3.6,73,0.00,,,0.00,WUHU216HW,2013-02-22 01:10:00,
2013-02-21 20:15:00,22.7,15.3,30.28,NE,45,0.2,3.6,73,0.00,,,0.00,WUHU216HW,2013-02-22 01:15:00,
2013-02-21 20:20:00,22.7,15.3,30.28,NE,45,0.9,1.6,73,0.00,,,0.00,WUHU216HW,2013-02-22 01:20:00,
2013-02-21 20:25:00,22.7,15.3,30.27,NNE,23,2.2,3.8,73,0.00,,,0.00,WUHU216HW,2013-02-22 01:25:00,
2013-02-21 20:30:00,22.7,15.3,30.27,NNE,23,0.4,3.8,73,0.00,,,0.00,WUHU216HW,2013-02-22 01:30:00,
2013-02-21 20:35:00,22.7,15.3,30.27,NE,45,1.6,3.4,73,0.00,,,0.00,WUHU216HW,2013-02-22 01:35:00,
2013-02-21 20:40:00,22.7,15.7,30.27,NE,45,1.6,2.5,74,0.00,,,0.00,WUHU216HW,2013-02-22 01:40:00,
2013-02-21 20:45:00,22.9,15.9,30.26,NNE,23,2.5,3.4,74,0.00,,,0.00,WUHU216HW,2013-02-22 01:45:00,
2013-02-21 20:50:00,22.7,15.7,30.25,NE,45,4.0,4.3,74,0.00,,,0.00,WUHU216HW,2013-02-22 01:50:00,
2013-02-21 20:55:00,22.7,15.7,30.26,NE,45,0.9,4.3,74,0.00,,,0.00,WUHU216HW,2013-02-22 01:55:00,
2013-02-21 21:00:00,22.7,15.7,30.25,NE,45,2.7,2.7,74,0.00,,,0.00,WUHU216HW,2013-02-22 02:00:00,
2013-02-21 21:05:00,22.7,15.9,30.25,ENE,68,1.8,4.0,75,0.00,,,0.00,WUHU216HW,2013-02-22 02:05:00,
2013-02-21 21:10:00,22.7,15.9,30.25,NE,45,2.9,4.0,75,0.00,,,0.00,WUHU216HW,2013-02-22 02:10:00,
2013-02-21 21:15:00,22.9,16.1,30.24,ENE,68,1.8,4.7,75,0.00,,,0.00,WUHU216HW,2013-02-22 02:15:00,
2013-02-21 21:20:00,22.7,15.9,30.24,East,90,1.8,9.2,75,0.00,,,0.00,WUHU216HW,2013-02-22 02:20:00,
2013-02-21 21:25:00,22.7,16.6,30.24,ENE,68,4.0,9.2,77,0.00,,,0.00,WUHU216HW,2013-02-22 02:25:00,
2013-02-21 21:30:00,22.9,16.8,30.24,NE,45,1.8,4.0,77,0.00,,,0.00,WUHU216HW,2013-02-22 02:30:00,
2013-02-21 21:35:00,22.7,16.6,30.24,NE,45,2.5,3.8,77,0.00,,,0.00,WUHU216HW,2013-02-22 02:35:00,
2013-02-21 21:40:00,22.9,16.8,30.24,East,90,1.8,4.7,77,0.00,,,0.00,WUHU216HW,2013-02-22 02:40:00,
2013-02-21 21:45:00,22.9,16.8,30.24,ENE,68,2.5,4.7,77,0.00,,,0.00,WUHU216HW,2013-02-22 02:45:00,
2013-02-21 21:50:00,23.0,16.9,30.25,NE,45,0.4,2.9,77,0.00,,,0.00,WUHU216HW,2013-02-22 02:50:00,
2013-02-21 21:55:00,23.0,16.9,30.25,ENE,68,3.1,4.0,77,0.00,,,0.00,WUHU216HW,2013-02-22 02:55:00,
2013-02-21 22:00:00,23.0,16.9,30.24,NE,45,2.5,4.3,77,0.00,,,0.00,WUHU216HW,2013-02-22 03:00:00,
2013-02-21 22:05:00,23.0,16.9,30.24,NNE,23,1.6,4.3,77,0.00,,,0.00,WUHU216HW,2013-02-22 03:05:00,
2013-02-21 22:10:00,23.0,17.2,30.24,NE,45,3.4,4.3,78,0.00,,,0.00,WUHU216HW,2013-02-22 03:10:00,
2013-02-21 22:15:00,23.0,17.2,30.25,NNE,23,3.4,4.3,78,0.00,,,0.00,WUHU216HW,2013-02-22 03:15:00,
2013-02-21 22:20:00,23.2,17.4,30.24,NE,45,3.4,3.4,78,0.00,,,0.00,WUHU216HW,2013-02-22 03:20:00,
2013-02-21 22:25:00,23.2,17.4,30.24,ENE,68,2.2,3.4,78,0.00,,,0.00,WUHU216HW,2013-02-22 03:25:00,
2013-02-21 22:30:00,23.2,17.4,30.24,NE,45,2.5,4.3,78,0.00,,,0.00,WUHU216HW,2013-02-22 03:30:00,
2013-02-21 22:35:00,23.2,17.4,30.24,NE,45,1.6,4.3,78,0.00,,,0.00,WUHU216HW,2013-02-22 03:35:00,
2013-02-21 22:40:00,23.4,17.6,30.24,East,90,2.2,3.1,78,0.00,,,0.00,WUHU216HW,2013-02-22 03:40:00,
2013-02-21 22:45:00,23.4,17.9,30.24,ENE,68,1.1,3.4,79,0.00,,,0.00,WUHU216HW,2013-02-22 03:45:00,
2013-02-21 22:50:00,23.4,17.9,30.24,NE,45,1.6,3.4,79,0.00,,,0.00,WUHU216HW,2013-02-22 03:50:00,
2013-02-21 22:55:00,23.4,17.9,30.23,ENE,68,3.1,3.1,79,0.00,,,0.00,WUHU216HW,2013-02-22 03:55:00,
2013-02-21 23:00:00,23.4,17.9,30.23,NE,45,2.0,3.1,79,0.00,,,0.00,WUHU216HW,2013-02-22 04:00:00,
2013-02-21 23:05:00,23.4,17.9,30.23,ESE,113,3.4,6.3,79,0.00,,,0.00,WUHU216HW,2013-02-22 04:05:00,
2013-02-21 23:10:00,23.4,18.2,30.23,ENE,68,3.4,6.3,80,0.00,,,0.00,WUHU216HW,2013-02-22 04:10:00,
2013-02-21 23:15:00,23.6,18.4,30.22,ENE,68,1.1,4.0,80,0.00,,,0.00,WUHU216HW,2013-02-22 04:15:00,
2013-02-21 23:20:00,23.6,18.4,30.22,East,90,1.3,4.9,80,0.00,,,0.00,WUHU216HW,2013-02-22 04:20:00,
2013-02-21 23:25:00,23.6,18.4,30.22,ENE,68,2.2,4.9,80,0.00,,,0.00,WUHU216HW,2013-02-22 04:25:00,
2013-02-21 23:30:00,23.6,18.4,30.22,ENE,68,0.7,2.5,80,0.00,,,0.00,WUHU216HW,2013-02-22 04:30:00,
2013-02-21 23:35:00,23.8,18.5,30.22,ENE,68,1.6,2.9,80,0.00,,,0.00,WUHU216HW,2013-02-22 04:35:00,
2013-02-21 23:40:00,23.8,18.5,30.22,East,90,0.4,5.4,80,0.00,,,0.00,WUHU216HW,2013-02-22 04:40:00,
2013-02-21 23:45:00,23.8,18.8,30.22,ESE,113,0.7,5.4,81,0.00,,,0.00,WUHU216HW,2013-02-22 04:45:00,
2013-02-21 23:50:00,23.9,19.0,30.22,East,90,0.7,4.5,81,0.00,,,0.00,WUHU216HW,2013-02-22 04:50:00,
2013-02-21 23:55:00,23.9,18.7,30.21,WSW,248,1.6,4.5,80,0.00,,,0.00,WUHU216HW,2013-02-22 04:55:00,